createdAt,value
2022-08-05T00:00:16.596Z,99625.53
2022-08-05T00:02:50.496Z,99621.13
2022-08-05T00:06:02.663Z,99616.66
2022-08-05T00:08:19.998Z,99610.31
2022-08-05T00:10:52.719Z,99606.53
2022-08-05T00:13:19.767Z,99602.53
2022-08-05T00:15:54.990Z,99603.13
2022-08-05T00:18:23.352Z,99597.97
2022-08-05T00:20:51.555Z,99621.63
2022-08-05T00:23:44.639Z,99611.75
2022-08-05T00:26:06.119Z,99633.41
2022-08-05T00:28:32.898Z,99661.41
2022-08-05T00:31:04.318Z,99674.44
2022-08-05T00:34:54.016Z,99679.78
2022-08-05T00:37:09.231Z,99687.53
2022-08-05T00:39:05.528Z,99698.44
2022-08-05T00:41:51.639Z,99694.53
2022-08-05T00:44:30.778Z,99708.50
2022-08-05T00:47:02.245Z,99711.63
2022-08-05T00:49:51.002Z,99715.84
2022-08-05T00:52:28.433Z,99709.56
2022-08-05T00:54:56.106Z,99712.22
2022-08-05T00:57:25.400Z,99712.44
2022-08-05T01:00:07.182Z,99713.31
2022-08-05T01:02:38.407Z,99719.72
2022-08-05T01:05:10.100Z,99713.13
2022-08-05T01:07:36.923Z,99714.47
2022-08-05T01:10:30.587Z,99720.16
2022-08-05T01:13:05.261Z,99709.78
2022-08-05T01:15:47.957Z,99706.03
2022-08-05T01:18:20.932Z,99710.72
2022-08-05T01:21:12.707Z,99722.50
2022-08-05T01:24:13.308Z,99717.94
2022-08-05T01:26:52.729Z,99736.47
2022-08-05T01:29:27.142Z,99734.81
2022-08-05T01:32:02.384Z,99739.50
2022-08-05T01:34:52.544Z,99736.03
2022-08-05T01:37:25.496Z,99729.56
2022-08-05T01:39:59.131Z,99736.69
2022-08-05T01:42:27.838Z,99742.94
2022-08-05T01:44:56.722Z,99756.53
2022-08-05T01:47:38.763Z,99751.13
2022-08-05T01:50:15.328Z,99748.59
2022-08-05T01:52:49.713Z,99752.66
2022-08-05T01:55:20.806Z,99739.78
2022-08-05T01:58:12.358Z,99756.09
2022-08-05T02:00:39.627Z,99741.94
2022-08-05T02:03:29.083Z,99744.59
2022-08-05T02:06:03.599Z,99735.41
2022-08-05T02:08:58.254Z,99739.09
2022-08-05T02:11:33.635Z,99742.94
2022-08-05T02:14:06.211Z,99744.13
2022-08-05T02:16:42.181Z,99739.41
2022-08-05T02:19:40.580Z,99744.09
2022-08-05T02:22:25.651Z,99744.50
2022-08-05T02:25:01.913Z,99738.31
2022-08-05T02:27:57.858Z,99743.03
2022-08-05T02:30:18.797Z,99744.31
2022-08-05T02:32:49.379Z,99740.81
2022-08-05T02:35:28.304Z,99749.09
2022-08-05T02:38:02.247Z,99752.63
2022-08-05T02:40:30.844Z,99750.44
2022-08-05T02:42:59.731Z,99747.84
2022-08-05T02:45:28.883Z,99740.94
2022-08-05T02:48:17.697Z,99736.34
2022-08-05T02:50:48.512Z,99740.63
2022-08-05T02:53:19.401Z,99740.97
2022-08-05T02:55:55.244Z,99734.56
2022-08-05T02:58:28.952Z,99734.34
2022-08-05T03:00:59.947Z,99730.97
2022-08-05T03:03:33.581Z,99737.84
2022-08-05T03:06:55.331Z,99729.03
2022-08-05T03:08:52.268Z,99745.66
2022-08-05T03:11:53.759Z,99734.97
2022-08-05T03:14:13.647Z,99736.19
2022-08-05T03:16:41.102Z,99723.31
2022-08-05T03:19:12.942Z,99723.59
2022-08-05T03:21:48.921Z,99730.53
2022-08-05T03:24:26.819Z,99727.81
2022-08-05T03:26:57.402Z,99744.09
2022-08-05T03:29:24.181Z,99749.00
2022-08-05T03:32:11.332Z,99735.00
2022-08-05T03:34:38.490Z,99715.09
2022-08-05T03:37:06.760Z,99715.50
2022-08-05T03:39:38.102Z,99715.63
2022-08-05T03:42:13.809Z,99716.41
2022-08-05T03:44:42.656Z,99715.41
2022-08-05T03:47:09.232Z,99705.50
2022-08-05T03:49:51.864Z,99708.91
2022-08-05T03:52:38.840Z,99715.38
2022-08-05T03:56:04.042Z,99721.78
2022-08-05T03:58:11.257Z,99716.75
2022-08-05T04:00:42.092Z,99713.50
2022-08-05T04:03:14.885Z,99720.16
2022-08-05T04:05:54.120Z,99717.88
2022-08-05T04:08:34.809Z,99735.09
2022-08-05T04:11:05.185Z,99745.72
2022-08-05T04:13:50.369Z,99746.25
2022-08-05T04:16:24.287Z,99730.72
2022-08-05T04:18:54.395Z,99743.63
2022-08-05T04:22:08.433Z,99745.47
2022-08-05T04:24:19.678Z,99741.81
2022-08-05T04:26:49.563Z,99732.09
2022-08-05T04:29:16.583Z,99743.41
2022-08-05T04:31:43.169Z,99756.22
2022-08-05T04:34:19.956Z,99752.31
2022-08-05T04:36:56.637Z,99756.53
2022-08-05T04:39:23.511Z,99756.88
2022-08-05T04:41:51.415Z,99749.00
2022-08-05T04:44:21.407Z,99742.22
2022-08-05T04:46:56.695Z,99765.38
2022-08-05T04:49:24.609Z,99747.19
2022-08-05T04:52:05.226Z,99739.94
2022-08-05T04:54:34.234Z,99751.09
2022-08-05T04:57:00.835Z,99759.72
2022-08-05T04:59:39.192Z,99751.75
2022-08-05T05:02:37.702Z,99754.03
2022-08-05T05:05:02.281Z,99773.41
2022-08-05T05:07:32.567Z,99773.44
2022-08-05T05:10:05.321Z,99771.91
2022-08-05T05:12:33.008Z,99774.66
2022-08-05T05:14:59.637Z,99795.25
2022-08-05T05:17:55.531Z,99803.13
2022-08-05T05:20:22.553Z,99786.88
2022-08-05T05:22:55.009Z,99797.25
2022-08-05T05:25:21.873Z,99799.59
2022-08-05T05:27:59.757Z,99798.06
2022-08-05T05:30:30.878Z,99768.44
2022-08-05T05:33:08.919Z,99774.34
2022-08-05T05:35:45.162Z,99771.06
2022-08-05T05:38:12.801Z,99764.84
2022-08-05T05:40:49.610Z,99771.00
2022-08-05T05:43:22.432Z,99796.75
2022-08-05T05:46:13.765Z,99807.25
2022-08-05T05:48:44.368Z,99791.59
2022-08-05T05:51:15.836Z,99794.06
2022-08-05T05:53:54.091Z,99780.56
2022-08-05T05:56:26.184Z,99803.75
2022-08-05T05:59:03.241Z,99826.19
2022-08-05T06:01:38.197Z,99798.31
2022-08-05T06:04:14.555Z,99808.03
2022-08-05T06:06:42.895Z,99815.41
2022-08-05T06:09:16.651Z,99815.97
2022-08-05T06:11:48.851Z,99811.41
2022-08-05T06:14:28.922Z,99828.03
2022-08-05T06:16:55.667Z,99819.91
2022-08-05T06:19:26.175Z,99833.25
2022-08-05T06:22:02.327Z,99839.06
2022-08-05T06:24:32.296Z,99858.38
2022-08-05T06:26:59.815Z,99848.31
2022-08-05T06:29:49.426Z,99843.47
2022-08-05T06:32:25.323Z,99852.31
2022-08-05T06:34:54.150Z,99855.94
2022-08-05T06:37:52.276Z,99868.72
2022-08-05T06:40:11.787Z,99864.31
2022-08-05T06:42:39.861Z,99865.47
2022-08-05T06:45:08.768Z,99869.09
2022-08-05T06:48:36.061Z,99877.06
2022-08-05T06:50:22.445Z,99882.31
2022-08-05T06:52:58.596Z,99905.00
2022-08-05T06:55:25.711Z,99881.41
2022-08-05T06:58:02.746Z,99898.88
2022-08-05T07:00:41.112Z,99877.47
2022-08-05T07:03:09.809Z,99894.97
2022-08-05T07:05:37.659Z,99888.44
2022-08-05T07:08:11.014Z,99900.66
2022-08-05T07:10:39.007Z,99897.72
2022-08-05T07:13:58.515Z,99901.03
2022-08-05T07:18:07.044Z,99891.34
2022-08-05T07:20:29.845Z,99913.91
2022-08-05T07:22:16.646Z,99922.84
2022-08-05T07:24:44.082Z,99913.50
2022-08-05T07:27:19.385Z,99919.19
2022-08-05T07:30:27.874Z,99932.00
2022-08-05T07:32:36.849Z,99944.50
2022-08-05T07:36:02.372Z,99941.22
2022-08-05T07:38:00.110Z,99950.94
2022-08-05T07:40:32.952Z,99959.25
2022-08-05T07:43:02.308Z,99960.16
2022-08-05T07:45:57.136Z,99945.09
2022-08-05T07:49:01.909Z,99955.00
2022-08-05T07:51:23.541Z,99954.44
2022-08-05T07:53:59.082Z,99954.56
2022-08-05T07:57:00.725Z,99966.38
2022-08-05T07:59:15.210Z,99970.81
2022-08-05T08:01:52.009Z,99967.59
2022-08-05T08:04:37.380Z,99979.88
2022-08-05T08:07:05.618Z,99966.59
2022-08-05T08:09:34.774Z,99973.88
2022-08-05T08:12:09.093Z,99982.75
2022-08-05T08:14:46.792Z,99984.16
2022-08-05T08:17:16.097Z,99985.09
2022-08-05T08:20:43.506Z,99981.06
2022-08-05T08:22:32.365Z,99985.50
2022-08-05T08:25:03.355Z,99982.31
2022-08-05T08:27:47.431Z,99988.75
2022-08-05T08:30:20.237Z,99989.66
2022-08-05T08:33:02.608Z,99979.72
2022-08-05T08:35:35.099Z,99984.03
2022-08-05T08:38:07.952Z,99987.47
2022-08-05T08:40:36.397Z,99990.38
2022-08-05T08:43:21.016Z,99993.91
2022-08-05T08:45:54.140Z,99991.41
2022-08-05T08:48:41.650Z,99993.91
2022-08-05T08:51:54.601Z,99996.59
2022-08-05T08:53:56.104Z,99988.63
2022-08-05T08:56:23.659Z,99983.78
2022-08-05T08:58:54.878Z,99987.66
2022-08-05T09:01:25.261Z,99987.91
2022-08-05T09:03:57.304Z,99995.34
2022-08-05T09:06:30.695Z,99990.19
2022-08-05T09:09:02.326Z,99990.81
2022-08-05T09:11:51.727Z,99990.88
2022-08-05T09:14:56.854Z,99992.19
2022-08-05T09:17:39.891Z,99976.97
2022-08-05T09:20:02.520Z,99982.28
2022-08-05T09:23:19.151Z,99992.16
2022-08-05T09:26:06.242Z,99982.53
2022-08-05T09:28:35.170Z,99985.09
2022-08-05T09:31:22.907Z,99983.03
2022-08-05T09:34:10.532Z,99983.72
2022-08-05T09:36:54.768Z,99988.41
2022-08-05T09:39:41.228Z,99974.88
2022-08-05T09:42:17.191Z,99974.72
2022-08-05T09:44:51.331Z,99972.41
2022-08-05T09:47:23.786Z,99972.34
2022-08-05T09:50:01.027Z,99973.16
2022-08-05T09:52:34.767Z,99973.19
2022-08-05T09:55:57.989Z,99968.03
2022-08-05T09:57:58.692Z,99965.34
2022-08-05T10:00:30.446Z,99966.38
2022-08-05T10:02:57.985Z,99971.53
2022-08-05T10:05:28.285Z,99967.72
2022-08-05T10:08:36.053Z,99971.84
2022-08-05T10:10:54.242Z,99971.09
2022-08-05T10:13:45.853Z,99966.78
2022-08-05T10:16:41.729Z,99960.97
2022-08-05T10:19:23.797Z,99960.78
2022-08-05T10:22:15.508Z,99961.56
2022-08-05T10:24:42.737Z,99962.59
2022-08-05T10:27:16.598Z,99967.00
2022-08-05T10:30:41.096Z,99954.31
2022-08-05T10:32:55.861Z,99949.06
2022-08-05T10:35:18.000Z,99953.47
2022-08-05T10:37:45.296Z,99967.59
2022-08-05T10:40:35.552Z,99950.50
2022-08-05T10:43:36.331Z,99950.22
2022-08-05T10:46:07.049Z,99955.03
2022-08-05T10:48:52.621Z,99950.66
2022-08-05T10:51:28.517Z,99951.91
2022-08-05T10:53:56.160Z,99951.00
2022-08-05T10:56:30.567Z,99946.25
2022-08-05T10:59:07.350Z,99940.50
2022-08-05T11:01:55.274Z,99942.38
2022-08-05T11:04:31.797Z,99943.41
2022-08-05T11:07:06.560Z,99939.56
2022-08-05T11:10:03.642Z,99936.59
2022-08-05T11:12:45.355Z,99939.88
2022-08-05T11:16:00.803Z,99931.16
2022-08-05T11:18:34.338Z,99929.19
2022-08-05T11:21:06.164Z,99943.78
2022-08-05T11:24:04.103Z,99937.47
2022-08-05T11:26:39.054Z,99936.72
2022-08-05T11:29:13.499Z,99928.50
2022-08-05T11:31:57.454Z,99927.47
2022-08-05T11:34:57.387Z,99931.91
2022-08-05T11:38:28.675Z,99930.56
2022-08-05T11:41:01.069Z,99927.19
2022-08-05T11:44:04.601Z,99933.44
2022-08-05T11:46:32.276Z,99936.38
2022-08-05T11:49:02.345Z,99932.28
2022-08-05T11:51:49.216Z,99927.59
2022-08-05T11:54:33.537Z,99919.34
2022-08-05T11:57:08.607Z,99921.34
2022-08-05T11:59:50.863Z,99918.00
2022-08-05T12:02:30.090Z,99919.00
2022-08-05T12:05:00.862Z,99914.69
2022-08-05T12:08:09.060Z,99913.31
2022-08-05T12:10:23.068Z,99913.81
2022-08-05T12:12:59.741Z,99907.03
2022-08-05T12:15:38.213Z,99906.66
2022-08-05T12:18:10.794Z,99896.72
2022-08-05T12:20:39.308Z,99889.47
2022-08-05T12:23:11.757Z,99895.97
2022-08-05T12:25:56.916Z,99886.13
2022-08-05T12:28:37.920Z,99889.38
2022-08-05T12:31:05.694Z,99890.78
2022-08-05T12:33:37.208Z,99890.56
2022-08-05T12:36:08.512Z,99882.53
2022-08-05T12:38:40.251Z,99879.28
2022-08-05T12:41:14.052Z,99879.25
2022-08-05T12:44:11.452Z,99865.16
2022-08-05T12:46:40.019Z,99867.44
2022-08-05T12:49:14.442Z,99868.34
2022-08-05T12:52:10.842Z,99865.88
2022-08-05T12:54:32.671Z,99867.78
2022-08-05T12:57:01.578Z,99857.75
2022-08-05T13:01:58.423Z,99851.47
2022-08-05T13:02:30.266Z,99853.41
2022-08-05T13:04:57.312Z,99856.19
2022-08-05T13:07:57.571Z,99850.75
2022-08-05T13:10:19.931Z,99846.06
2022-08-05T13:12:58.241Z,99840.41
2022-08-05T13:15:41.721Z,99847.34
2022-08-05T13:18:20.211Z,99831.16
2022-08-05T13:20:50.080Z,99822.84
2022-08-05T13:23:18.203Z,99831.00
2022-08-05T13:25:58.911Z,99836.06
2022-08-05T13:28:27.081Z,99834.00
2022-08-05T13:30:53.851Z,99823.75
2022-08-05T13:34:23.299Z,99820.81
2022-08-05T13:36:10.263Z,99813.22
2022-08-05T13:38:42.025Z,99810.25
2022-08-05T13:41:10.910Z,99804.34
2022-08-05T13:43:44.047Z,99789.47
2022-08-05T13:46:50.767Z,99794.88
2022-08-05T13:49:11.543Z,99803.81
2022-08-05T13:51:46.077Z,99781.69
2022-08-05T13:54:15.395Z,99789.56
2022-08-05T13:56:50.519Z,99785.34
2022-08-05T13:59:24.603Z,99787.13
2022-08-05T14:01:57.589Z,99774.22
2022-08-05T14:04:49.248Z,99788.75
2022-08-05T14:07:54.985Z,99774.22
2022-08-05T14:10:09.130Z,99760.25
2022-08-05T14:12:36.602Z,99762.09
2022-08-05T14:15:05.980Z,99760.63
2022-08-05T14:17:51.741Z,99756.50
2022-08-05T14:20:21.705Z,99762.19
2022-08-05T14:22:55.916Z,99753.56
2022-08-05T14:25:22.685Z,99754.50
2022-08-05T14:27:54.935Z,99756.91
2022-08-05T14:30:21.892Z,99749.44
2022-08-05T14:32:49.320Z,99746.97
2022-08-05T14:35:20.817Z,99745.72
2022-08-05T14:37:54.981Z,99748.75
2022-08-05T14:40:24.173Z,99749.06
2022-08-05T14:42:52.211Z,99742.84
2022-08-05T14:45:19.161Z,99745.16
2022-08-05T14:48:03.475Z,99736.69
2022-08-05T14:50:32.926Z,99738.97
2022-08-05T14:53:03.019Z,99732.69
2022-08-05T14:55:39.407Z,99735.44
2022-08-05T14:58:10.783Z,99739.69
2022-08-05T15:00:58.459Z,99726.16
2022-08-05T15:03:33.080Z,99737.84
2022-08-05T15:06:08.059Z,99729.13
2022-08-05T15:08:59.810Z,99743.13
2022-08-05T15:11:51.885Z,99744.03
2022-08-05T15:14:33.548Z,99732.78
2022-08-05T15:17:01.769Z,99734.44
2022-08-05T15:19:30.714Z,99734.38
2022-08-05T15:22:00.939Z,99739.34
2022-08-05T15:24:29.224Z,99740.13
2022-08-05T15:26:56.178Z,99742.28
2022-08-05T15:29:25.702Z,99746.59
2022-08-05T15:32:03.039Z,99739.63
2022-08-05T15:34:32.066Z,99734.72
2022-08-05T15:37:03.456Z,99733.31
2022-08-05T15:40:59.706Z,99737.94
2022-08-05T15:42:28.785Z,99734.97
2022-08-05T15:45:06.428Z,99736.84
2022-08-05T15:47:35.840Z,99734.59
2022-08-05T15:50:03.763Z,99740.75
2022-08-05T15:52:54.467Z,99742.84
2022-08-05T15:55:24.912Z,99742.59
2022-08-05T15:58:07.004Z,99748.63
2022-08-05T16:00:50.673Z,99749.94
2022-08-05T16:03:20.466Z,99748.91
2022-08-05T16:05:50.781Z,99746.09
2022-08-05T16:08:19.412Z,99753.38
2022-08-05T16:10:46.077Z,99747.78
2022-08-05T16:13:19.349Z,99763.91
2022-08-05T16:15:51.888Z,99750.09
2022-08-05T16:18:19.092Z,99754.03
2022-08-05T16:20:46.239Z,99762.88
2022-08-05T16:23:12.863Z,99767.16
2022-08-05T16:25:39.469Z,99774.56
2022-08-05T16:28:10.227Z,99766.22
2022-08-05T16:30:37.286Z,99764.25
2022-08-05T16:33:04.042Z,99765.97
2022-08-05T16:35:32.488Z,99770.63
2022-08-05T16:38:18.515Z,99765.22
2022-08-05T16:40:59.698Z,99765.41
2022-08-05T16:43:33.556Z,99766.91
2022-08-05T16:46:03.445Z,99762.03
2022-08-05T16:48:35.634Z,99770.63
2022-08-05T16:51:08.752Z,99768.16
2022-08-05T16:54:03.318Z,99754.03
2022-08-05T16:56:23.425Z,99752.50
2022-08-05T16:58:50.447Z,99755.72
2022-08-05T17:01:18.869Z,99756.41
2022-08-05T17:03:45.936Z,99752.06
2022-08-05T17:06:13.326Z,99748.06
2022-08-05T17:08:52.331Z,99747.97
2022-08-05T17:11:25.396Z,99756.03
2022-08-05T17:14:00.488Z,99747.69
2022-08-05T17:16:36.109Z,99761.16
2022-08-05T17:19:07.828Z,99756.34
2022-08-05T17:21:37.551Z,99750.81
2022-08-05T17:24:19.778Z,99755.66
2022-08-05T17:26:56.057Z,99751.13
2022-08-05T17:29:40.035Z,99749.91
2022-08-05T17:32:16.797Z,99756.34
2022-08-05T17:34:48.055Z,99760.06
2022-08-05T17:37:36.143Z,99754.25
2022-08-05T17:40:10.297Z,99747.72
2022-08-05T17:42:43.031Z,99755.41
2022-08-05T17:45:21.239Z,99754.84
2022-08-05T17:47:54.475Z,99751.63
2022-08-05T17:50:28.032Z,99760.63
2022-08-05T17:52:59.038Z,99762.16
2022-08-05T17:55:34.333Z,99769.25
2022-08-05T17:58:12.533Z,99790.34
2022-08-05T18:00:47.036Z,99784.19
2022-08-05T18:03:33.422Z,99788.00
2022-08-05T18:06:06.131Z,99788.69
2022-08-05T18:08:44.100Z,99788.31
2022-08-05T18:11:23.795Z,99791.81
2022-08-05T18:14:00.259Z,99801.56
2022-08-05T18:16:26.811Z,99811.91
2022-08-05T18:18:53.428Z,99799.97
2022-08-05T18:21:22.848Z,99801.63
2022-08-05T18:23:53.915Z,99806.53
2022-08-05T18:26:27.610Z,99803.88
2022-08-05T18:28:56.528Z,99808.22
2022-08-05T18:31:33.812Z,99818.78
2022-08-05T18:34:03.263Z,99811.06
2022-08-05T18:36:32.457Z,99819.09
2022-08-05T18:38:59.961Z,99829.22
2022-08-05T18:41:53.312Z,99821.28
2022-08-05T18:44:13.960Z,99826.06
2022-08-05T18:47:00.302Z,99836.97
2022-08-05T18:49:57.866Z,99838.13
2022-08-05T18:52:35.686Z,99836.19
2022-08-05T18:55:06.017Z,99827.84
2022-08-05T18:57:43.140Z,99834.88
2022-08-05T19:00:20.804Z,99848.50
2022-08-05T19:02:52.145Z,99843.84
2022-08-05T19:06:06.080Z,99846.03
2022-08-05T19:08:13.469Z,99847.13
2022-08-05T19:10:41.125Z,99851.50
2022-08-05T19:13:07.716Z,99854.50
2022-08-05T19:15:59.020Z,99851.47
2022-08-05T19:18:26.663Z,99849.69
2022-08-05T19:20:54.199Z,99851.41
2022-08-05T19:24:07.300Z,99852.44
2022-08-05T19:26:11.194Z,99857.97
2022-08-05T19:28:43.277Z,99852.19
2022-08-05T19:31:13.377Z,99844.81
2022-08-05T19:33:48.470Z,99844.81
2022-08-05T19:36:25.109Z,99859.34
2022-08-05T19:38:54.427Z,99861.53
2022-08-05T19:41:34.578Z,99863.06
2022-08-05T19:44:13.540Z,99867.31
2022-08-05T19:46:40.834Z,99867.72
2022-08-05T19:49:07.570Z,99872.19
2022-08-05T19:52:09.326Z,99866.91
2022-08-05T19:54:31.263Z,99870.19
2022-08-05T19:56:59.767Z,99867.16
2022-08-05T20:00:01.078Z,99874.28
2022-08-05T20:02:17.864Z,99877.09
2022-08-05T20:04:45.767Z,99885.56
2022-08-05T20:07:14.270Z,99890.50
2022-08-05T20:09:53.806Z,99893.63
2022-08-05T20:12:23.476Z,99903.25
2022-08-05T20:14:52.251Z,99904.50
2022-08-05T20:17:23.555Z,99904.56
2022-08-05T20:19:56.581Z,99907.06
2022-08-05T20:22:26.643Z,99912.41
2022-08-05T20:24:54.820Z,99914.78
2022-08-05T20:27:26.961Z,99922.53
2022-08-05T20:29:58.466Z,99918.44
2022-08-05T20:33:08.710Z,99927.00
2022-08-05T20:35:40.699Z,99921.88
2022-08-05T20:38:20.132Z,99927.06
2022-08-05T20:40:54.001Z,99929.13
2022-08-05T20:43:58.012Z,99924.72
2022-08-05T20:46:10.160Z,99932.34
2022-08-05T20:48:39.402Z,99931.53
2022-08-05T20:51:08.813Z,99932.66
2022-08-05T20:53:37.068Z,99935.75
2022-08-05T20:56:09.676Z,99935.50
2022-08-05T20:58:36.991Z,99928.47
2022-08-05T21:01:04.533Z,99932.13
2022-08-05T21:03:34.162Z,99931.31
2022-08-05T21:06:01.995Z,99932.34
2022-08-05T21:08:41.268Z,99943.94
2022-08-05T21:11:12.939Z,99936.66
2022-08-05T21:13:59.278Z,99942.19
2022-08-05T21:16:29.716Z,99933.72
2022-08-05T21:19:01.367Z,99943.06
2022-08-05T21:21:39.268Z,99939.31
2022-08-05T21:24:12.883Z,99941.16
2022-08-05T21:26:41.348Z,99951.31
2022-08-05T21:29:10.046Z,99946.22
2022-08-05T21:31:41.455Z,99942.38
2022-08-05T21:34:10.546Z,99947.25
2022-08-05T21:36:37.962Z,99951.44
2022-08-05T21:39:04.914Z,99954.41
2022-08-05T21:41:33.746Z,99954.03
2022-08-05T21:44:03.780Z,99947.94
2022-08-05T21:46:34.955Z,99945.34
2022-08-05T21:49:07.290Z,99946.84
2022-08-05T21:52:22.028Z,99953.25
2022-08-05T21:54:30.627Z,99947.22
2022-08-05T21:57:29.928Z,99955.44
2022-08-05T22:00:01.908Z,99961.69
2022-08-05T22:02:30.682Z,99957.31
2022-08-05T22:04:58.406Z,99960.66
2022-08-05T22:07:46.716Z,99967.06
2022-08-05T22:10:13.697Z,99965.53
2022-08-05T22:12:44.910Z,99975.38
2022-08-05T22:16:00.382Z,99986.41
2022-08-05T22:18:05.234Z,99987.09
2022-08-05T22:20:32.037Z,99991.97
2022-08-05T22:23:21.610Z,99991.97
2022-08-05T22:26:10.871Z,100000.28
2022-08-05T22:28:38.768Z,100001.38
2022-08-05T22:31:06.036Z,99994.66
2022-08-05T22:33:56.570Z,100012.16
2022-08-05T22:36:24.118Z,100003.41
2022-08-05T22:38:53.715Z,99999.91
2022-08-05T22:41:26.354Z,99999.56
2022-08-05T22:44:09.370Z,100001.81
2022-08-05T22:46:39.847Z,100005.09
2022-08-05T22:49:12.083Z,100004.16
2022-08-05T22:52:02.974Z,99999.31
2022-08-05T22:54:33.544Z,100007.31
2022-08-05T22:57:00.157Z,100005.94
2022-08-05T22:59:46.582Z,100005.50
2022-08-05T23:02:16.533Z,100010.81
2022-08-05T23:04:45.714Z,100005.56
2022-08-05T23:07:22.093Z,100019.38
2022-08-05T23:09:57.579Z,100023.69
2022-08-05T23:12:32.354Z,100026.75
2022-08-05T23:15:04.037Z,100014.22
2022-08-05T23:17:37.483Z,100023.97
2022-08-05T23:20:16.604Z,100015.38
2022-08-05T23:22:47.432Z,100026.84
2022-08-05T23:25:52.345Z,100021.91
2022-08-05T23:28:07.019Z,100022.09
2022-08-05T23:30:40.540Z,100017.53
2022-08-05T23:33:22.544Z,100015.63
2022-08-05T23:35:56.075Z,100021.66
2022-08-05T23:38:25.105Z,100026.56
2022-08-05T23:40:52.759Z,100019.19
2022-08-05T23:43:25.066Z,100024.31
2022-08-05T23:46:04.614Z,100024.06
2022-08-05T23:48:31.157Z,100023.66
2022-08-05T23:50:58.598Z,100021.81
2022-08-05T23:53:28.483Z,100017.22
2022-08-05T23:56:13.123Z,100009.84
2022-08-05T23:58:46.783Z,100019.56
